Impacts METAR Board
IDs:

KDCA - Washington/National, VA, US

Updated at: 2100 UTC 24 Apr 2018
Potential Impact None Slight Moderate High
Time 24/09Z 24/10Z 24/11Z 24/12Z 24/13Z 24/14Z 24/15Z 24/16Z 24/17Z 24/18Z 24/19Z 24/20Z 24/21Z
Temp55 55 55 56 58 59 61 62 63 63 61 60 59
Dewpt39 40 41 42 44 45 46 47 47 47 48 50 51
Altim30.31 30.30 30.30 30.29 30.28 30.27 30.26 30.23 30.20 30.18 30.16 30.12 30.10
VIS10 10 10 10 10 10 10 10 10 10 10 10 10
CIG55 44 43 44 47 50 60 60 70 55 50 50 44
CoverOVCOVCOVCOVCOVCOVCOVCOVCOVCOVCOVCOVCOVC
FltCatVFRVFRVFRVFRVFRVFRVFRVFRVFRVFRVFRVFRVFR
WX---------------------RA-RA-RA
WDir11090807010012013013013012014010090
WSpd8 7 7 8 8 8 11 15 17 15 12 7 8
WGst-- -- -- -- 15 -- 18 28 25 27 -- -- --
Raw hourly METARs
KDCA 240852Z 11008KT 10SM FEW046 BKN055 OVC130 13/04 A3031 RMK AO2 SLP262 T01280039 56013
KDCA 240952Z 09007KT 10SM OVC044 13/04 A3030 RMK AO2 SLP259 T01280044
KDCA 241052Z 08007KT 10SM BKN043 OVC060 13/05 A3030 RMK AO2 SLP260 T01280050
KDCA 241152Z 07008KT 040V110 10SM BKN044 OVC055 13/06 A3029 RMK AO2 SLP256 T01330056 10133 20128 58006
KDCA 241252Z 10008G15KT 10SM BKN047 OVC060 14/07 A3028 RMK AO2 SLP253 T01440067
KDCA 241352Z 12008KT 10SM FEW040 BKN050 OVC090 15/07 A3027 RMK AO2 SLP249 T01500072
KDCA 241452Z 13011G18KT 10SM OVC060 16/08 A3026 RMK AO2 SLP246 T01610078 58011
KDCA 241552Z 13015G28KT 10SM BKN060 OVC080 17/08 A3023 RMK AO2 PK WND 12028/1548 SLP238 T01670083
KDCA 241652Z 13017G25KT 10SM SCT050 BKN070 OVC130 17/08 A3020 RMK AO2 SLP227 T01720083
KDCA 241752Z 12015G27KT 10SM FEW040 BKN055 OVC070 17/08 A3018 RMK AO2 PK WND 11027/1743 SLP220 T01720083 10172 20133 56024
KDCA 241852Z 14012KT 10SM -RA SCT040 OVC050 16/09 A3016 RMK AO2 RAB1759 SLP212 P0000 T01610089
KDCA 241952Z 10007KT 10SM -RA SCT041 BKN050 OVC080 16/10 A3012 RMK AO2 SLP201 P0002 T01560100
KDCA 242052Z 09008KT 10SM -RA SCT037 BKN044 OVC080 15/11 A3010 RMK AO2 SLP192 P0003 60005 T01500106 56029



Page loaded:  21:06 UTC  |   02:06 PM Pacific  |   03:06 PM Mountain  |   04:06 PM Central  |   05:06 PM Eastern

 

ADVISORIES

FORECASTS

FORECASTS

OBSERVATIONS

USER TOOLS

ABOUT US